Naniwa Maru No.21 — JG5648 — position and weather

sailwx.info

Track history (hours):
 
Tides and Currents Weather Stations Pressure Air Temp Water Temp Dewpoint Dewpoint Depression Visibility Wind Speed Wind Dir Waves Ship Positions

Naniwa Maru No.21

Last reported at 2016-Feb-06 01:33 UTC. Time now 2016-Feb-06 09:22 UTC.
Position N 34°08' E 135°00'.

Length 71 m; draft 4.2 m.

Type: Tanker. MMSI: 431301595.

Date/timePositionNaut miles runAvg speedWind from/ knotsBaromVisibWave heightAir tempDewpointWater temp
2016-Feb-06 01:33N 34°08' E 135°00'23510.7
2016-Feb-05 03:33N 33°44' E 130°19'9 8.6
2016-Feb-05 02:31N 33°36' E 130°23'0 0.0
2016-Feb-05 01:31N 33°36' E 130°23'0 0.0
2016-Feb-05 00:33N 33°36' E 130°23'0 0.0
2016-Feb-04 23:31N 33°36' E 130°23'0 0.3
2016-Feb-04 22:33N 33°36' E 130°23'2 1.7
2016-Feb-04 21:31N 33°37' E 130°21'0 0.3
2016-Feb-04 20:33N 33°37' E 130°21'242 7.5
2016-Feb-03 12:18N 34°36' E 135°04'911.9
2016-Feb-03 11:33N 34°27' E 135°03'1611.5
2016-Feb-03 10:11N 34°11' E 135°04'5 7.4
2016-Feb-03 09:31N 34°07' E 135°07'0 0.0
2016-Feb-03 08:31N 34°07' E 135°07'0 0.0
2016-Feb-03 07:31N 34°07' E 135°07'1 0.6
2016-Feb-03 06:18N 34°08' E 135°07'0 0.3
2016-Feb-03 05:26N 34°08' E 135°07'0 0.0
2016-Feb-03 03:26N 34°08' E 135°07'0 0.0
2016-Feb-03 01:11N 34°08' E 135°07'3 4.0
2016-Feb-03 00:32N 34°08' E 135°04'23811.3
2016-Feb-02 03:31N 33°45' E 130°19'9 9.1
2016-Feb-02 02:33N 33°36' E 130°23'0 0.1
2016-Feb-02 01:26N 33°36' E 130°23'0 0.0
2016-Feb-01 23:32N 33°36' E 130°23'1 0.6
2016-Feb-01 22:33N 33°37' E 130°23'2 0.6
2016-Feb-01 19:31N 33°37' E 130°21'0 0.0
2016-Feb-01 17:28N 33°37' E 130°21'8 8.4
2016-Feb-01 16:33N 33°44' E 130°17'5 0.1
2016-Jan-31 01:22N 33°48' E 130°22'911.1
2016-Jan-31 00:33N 33°39' E 130°18'6 5.5
2016-Jan-30 23:32N 33°36' E 130°23'0 0.0
2016-Jan-30 22:32N 33°36' E 130°23'0 0.0
2016-Jan-30 21:33N 33°36' E 130°23'0 0.0
2016-Jan-30 20:32N 33°36' E 130°23'0 0.0
2016-Jan-30 19:32N 33°36' E 130°23'0 0.0
2016-Jan-30 18:32N 33°36' E 130°23'0 0.0
2016-Jan-30 17:32N 33°36' E 130°23'0 0.0
2016-Jan-30 16:33N 33°36' E 130°23'0 0.0
2016-Jan-30 15:32N 33°36' E 130°23'0 0.0
2016-Jan-30 14:33N 33°36' E 130°23'0 0.0
2016-Jan-30 13:32N 33°36' E 130°23'0 0.0
2016-Jan-30 12:33N 33°36' E 130°23'0 0.0
2016-Jan-30 06:33N 33°36' E 130°23'2 2.3
2016-Jan-30 05:32N 33°37' E 130°21'2 2.0
2016-Jan-30 04:31N 33°36' E 130°23'0 0.0
2016-Jan-30 03:31N 33°36' E 130°23'0 0.0
2016-Jan-30 01:31N 33°36' E 130°23'0 0.1
2016-Jan-30 00:31N 33°36' E 130°23'2 1.8
2016-Jan-29 23:18N 33°37' E 130°21'0 0.0
2016-Jan-29 21:30N 33°37' E 130°21'0 0.0
2016-Jan-29 20:27N 33°37' E 130°21'0 0.0
2016-Jan-29 19:30N 33°37' E 130°21'0 0.0
2016-Jan-29 18:34N 33°37' E 130°21'0 0.0
2016-Jan-29 17:33N 33°37' E 130°21'0 0.0
2016-Jan-29 16:33N 33°37' E 130°21'0 0.0
2016-Jan-29 09:30N 33°37' E 130°21'0 0.0
2016-Jan-29 08:33N 33°37' E 130°21'3 1.1
2016-Jan-29 05:33N 33°39' E 130°17'242 7.5
2016-Jan-27 21:18N 34°08' E 135°07'  
Track history (hours):
 
Tides and Currents Weather Stations Pressure Air Temp Water Temp Dewpoint Dewpoint Depression Visibility Wind Speed Wind Dir Waves Ship Positions

Naniwa Maru No.21

Last reported at 2016-Feb-06 01:33 UTC. Time now 2016-Feb-06 09:22 UTC.
Position N 34°08' E 135°00'.

Length 71 m; draft 4.2 m.

Type: Tanker. MMSI: 431301595.

Date/timePositionNaut miles runAvg speedWind from/ knotsBaromVisibWave heightAir tempDewpointWater temp
2016-Feb-06 01:33N 34°08' E 135°00'23510.7
2016-Feb-05 03:33N 33°44' E 130°19'9 8.6
2016-Feb-05 02:31N 33°36' E 130°23'0 0.0
2016-Feb-05 01:31N 33°36' E 130°23'0 0.0
2016-Feb-05 00:33N 33°36' E 130°23'0 0.0
2016-Feb-04 23:31N 33°36' E 130°23'0 0.3
2016-Feb-04 22:33N 33°36' E 130°23'2 1.7
2016-Feb-04 21:31N 33°37' E 130°21'0 0.3
2016-Feb-04 20:33N 33°37' E 130°21'242 7.5
2016-Feb-03 12:18N 34°36' E 135°04'911.9
2016-Feb-03 11:33N 34°27' E 135°03'1611.5
2016-Feb-03 10:11N 34°11' E 135°04'5 7.4
2016-Feb-03 09:31N 34°07' E 135°07'0 0.0
2016-Feb-03 08:31N 34°07' E 135°07'0 0.0
2016-Feb-03 07:31N 34°07' E 135°07'1 0.6
2016-Feb-03 06:18N 34°08' E 135°07'0 0.3
2016-Feb-03 05:26N 34°08' E 135°07'0 0.0
2016-Feb-03 03:26N 34°08' E 135°07'0 0.0
2016-Feb-03 01:11N 34°08' E 135°07'3 4.0
2016-Feb-03 00:32N 34°08' E 135°04'23811.3
2016-Feb-02 03:31N 33°45' E 130°19'9 9.1
2016-Feb-02 02:33N 33°36' E 130°23'0 0.1
2016-Feb-02 01:26N 33°36' E 130°23'0 0.0
2016-Feb-01 23:32N 33°36' E 130°23'1 0.6
2016-Feb-01 22:33N 33°37' E 130°23'2 0.6
2016-Feb-01 19:31N 33°37' E 130°21'0 0.0
2016-Feb-01 17:28N 33°37' E 130°21'8 8.4
2016-Feb-01 16:33N 33°44' E 130°17'5 0.1
2016-Jan-31 01:22N 33°48' E 130°22'911.1
2016-Jan-31 00:33N 33°39' E 130°18'6 5.5
2016-Jan-30 23:32N 33°36' E 130°23'0 0.0
2016-Jan-30 22:32N 33°36' E 130°23'0 0.0
2016-Jan-30 21:33N 33°36' E 130°23'0 0.0
2016-Jan-30 20:32N 33°36' E 130°23'0 0.0
2016-Jan-30 19:32N 33°36' E 130°23'0 0.0
2016-Jan-30 18:32N 33°36' E 130°23'0 0.0
2016-Jan-30 17:32N 33°36' E 130°23'0 0.0
2016-Jan-30 16:33N 33°36' E 130°23'0 0.0
2016-Jan-30 15:32N 33°36' E 130°23'0 0.0
2016-Jan-30 14:33N 33°36' E 130°23'0 0.0
2016-Jan-30 13:32N 33°36' E 130°23'0 0.0
2016-Jan-30 12:33N 33°36' E 130°23'0 0.0
2016-Jan-30 06:33N 33°36' E 130°23'2 2.3
2016-Jan-30 05:32N 33°37' E 130°21'2 2.0
2016-Jan-30 04:31N 33°36' E 130°23'0 0.0
2016-Jan-30 03:31N 33°36' E 130°23'0 0.0
2016-Jan-30 01:31N 33°36' E 130°23'0 0.1
2016-Jan-30 00:31N 33°36' E 130°23'2 1.8
2016-Jan-29 23:18N 33°37' E 130°21'0 0.0
2016-Jan-29 21:30N 33°37' E 130°21'0 0.0
2016-Jan-29 20:27N 33°37' E 130°21'0 0.0
2016-Jan-29 19:30N 33°37' E 130°21'0 0.0
2016-Jan-29 18:34N 33°37' E 130°21'0 0.0
2016-Jan-29 17:33N 33°37' E 130°21'0 0.0
2016-Jan-29 16:33N 33°37' E 130°21'0 0.0
2016-Jan-29 09:30N 33°37' E 130°21'0 0.0
2016-Jan-29 08:33N 33°37' E 130°21'3 1.1
2016-Jan-29 05:33N 33°39' E 130°17'242 7.5
2016-Jan-27 21:18N 34°08' E 135°07'  

Dump ship's entire track history